Time;durP1;ratioP1;P1;durP2;ratioP2;P2;SDS_P1;SDS_P2;PMS_P1;PMS_P2;Temp;Humidity;BMP_temperature;BMP_pressure;BME280_temperature;BME280_humidity;BME280_pressure;Samples;Min_cycle;Max_cycle;Signal;HPM_P1;HPM_P2
2022/09/03 00:02:26;;;;;;;;;;;22.50;40.90;;;;;;5030440;28;19921;-63
2022/09/03 00:04:54;;;;;;;;;;;22.50;40.30;;;;;;5048118;28;20092;-62
2022/09/03 00:07:22;;;;;;;;;;;22.50;40.30;;;;;;5044973;28;19925;-62
2022/09/03 00:09:50;;;;;;;;;;;22.50;40.30;;;;;;5025720;28;20189;-62
2022/09/03 00:12:18;;;;;;;;;;;22.50;40.30;;;;;;5039928;28;19921;-62
2022/09/03 00:14:48;;;;;;;;;;;22.60;40.30;;;;;;5046919;28;19991;-62
2022/09/03 00:17:17;;;;;;;;;;;22.50;40.20;;;;;;5047222;28;19921;-62
2022/09/03 00:19:44;;;;;;;;;;;22.50;40.20;;;;;;5028787;28;19928;-62
2022/09/03 00:22:13;;;;;;;;;;;22.50;40.20;;;;;;5047215;28;19928;-62
2022/09/03 00:24:40;;;;;;;;;;;22.50;40.20;;;;;;5025164;28;20349;-62
2022/09/03 00:27:08;;;;;;;;;;;22.50;40.20;;;;;;5046548;28;19978;-61
2022/09/03 00:29:35;;;;;;;;;;;22.50;40.20;;;;;;5045150;28;19927;-61
2022/09/03 00:32:05;;;;;;;;;;;22.50;40.10;;;;;;5046275;28;19922;-61
2022/09/03 00:34:34;;;;;;;;;;;22.50;40.10;;;;;;5031581;28;19920;-61
2022/09/03 00:37:01;;;;;;;;;;;22.50;40.20;;;;;;5028615;28;19932;-61
2022/09/03 00:39:28;;;;;;;;;;;22.50;40.10;;;;;;5029257;28;19924;-61
2022/09/03 00:42:05;;;;;;;;;;;22.50;40.10;;;;;;5046469;28;20004;-61
2022/09/03 00:44:38;;;;;;;;;;;22.50;40.10;;;;;;5026125;28;19933;-61
2022/09/03 00:47:09;;;;;;;;;;;22.50;40.10;;;;;;5043603;28;19928;-61
2022/09/03 00:49:39;;;;;;;;;;;22.50;40.10;;;;;;5026589;28;19983;-61
2022/09/03 00:52:10;;;;;;;;;;;22.50;40.10;;;;;;5023918;28;19955;-61
2022/09/03 00:54:39;;;;;;;;;;;22.50;40.10;;;;;;5024965;28;19924;-61
2022/09/03 00:57:13;;;;;;;;;;;22.50;40.10;;;;;;5025264;28;20384;-61
2022/09/03 00:59:41;;;;;;;;;;;22.40;40.00;;;;;;5044877;28;19940;-61
2022/09/03 01:02:12;;;;;;;;;;;22.50;40.10;;;;;;5043770;28;19940;-61
2022/09/03 01:04:41;;;;;;;;;;;22.40;40.00;;;;;;5025221;28;19997;-61
2022/09/03 01:07:09;;;;;;;;;;;22.40;40.00;;;;;;5025847;28;19959;-61
2022/09/03 01:09:41;;;;;;;;;;;22.40;40.00;;;;;;5040705;28;19975;-61
2022/09/03 01:12:12;;;;;;;;;;;22.40;40.00;;;;;;5044645;28;20281;-61
2022/09/03 01:14:45;;;;;;;;;;;22.40;40.00;;;;;;5027466;28;20006;-61
2022/09/03 01:17:16;;;;;;;;;;;22.40;40.00;;;;;;5026711;28;19936;-61
2022/09/03 01:19:51;;;;;;;;;;;22.40;40.00;;;;;;5026003;28;19920;-61
2022/09/03 01:22:25;;;;;;;;;;;22.40;40.00;;;;;;5040453;28;19935;-62
2022/09/03 01:24:59;;;;;;;;;;;22.40;39.90;;;;;;5044762;28;19928;-61
2022/09/03 01:27:30;;;;;;;;;;;22.40;39.90;;;;;;5023944;28;19932;-61
2022/09/03 01:30:02;;;;;;;;;;;22.40;39.90;;;;;;5043638;28;19978;-61
2022/09/03 01:32:32;;;;;;;;;;;22.40;39.90;;;;;;5019379;28;19925;-61
2022/09/03 01:35:01;;;;;;;;;;;22.40;39.90;;;;;;5040453;28;19921;-62
2022/09/03 01:37:31;;;;;;;;;;;22.40;39.90;;;;;;5038447;28;19998;-61
2022/09/03 01:40:00;;;;;;;;;;;22.40;39.90;;;;;;5041361;28;19925;-61
2022/09/03 01:42:31;;;;;;;;;;;22.40;39.90;;;;;;5026539;28;19924;-61
2022/09/03 01:45:05;;;;;;;;;;;22.40;39.90;;;;;;5022175;28;19921;-61
2022/09/03 01:47:36;;;;;;;;;;;22.40;39.90;;;;;;5029131;28;19921;-61
2022/09/03 01:50:04;;;;;;;;;;;22.30;39.80;;;;;;5026924;28;19925;-61
2022/09/03 01:52:35;;;;;;;;;;;22.30;39.70;;;;;;5045764;28;19928;-61
2022/09/03 01:55:09;;;;;;;;;;;22.30;39.70;;;;;;5045499;28;19927;-61
2022/09/03 01:57:39;;;;;;;;;;;22.30;39.70;;;;;;5038400;28;19932;-61
2022/09/03 02:00:07;;;;;;;;;;;22.40;39.90;;;;;;5045283;28;19921;-61
2022/09/03 02:02:35;;;;;;;;;;;22.30;39.80;;;;;;5042012;28;19933;-61
2022/09/03 02:05:08;;;;;;;;;;;22.30;39.80;;;;;;5023615;28;19921;-61
2022/09/03 02:07:35;;;;;;;;;;;22.30;39.70;;;;;;5024468;28;19929;-61
2022/09/03 02:10:02;;;;;;;;;;;22.30;39.80;;;;;;5024632;28;19921;-61
2022/09/03 02:12:31;;;;;;;;;;;22.30;39.70;;;;;;5047549;28;19978;-61
2022/09/03 02:14:58;;;;;;;;;;;22.30;39.80;;;;;;5024007;28;19921;-61
2022/09/03 02:17:25;;;;;;;;;;;22.30;39.80;;;;;;5023622;28;19973;-61
2022/09/03 02:19:53;;;;;;;;;;;22.30;39.70;;;;;;5030188;28;19940;-61
2022/09/03 02:22:22;;;;;;;;;;;22.30;39.80;;;;;;5041250;28;19924;-61
2022/09/03 02:24:49;;;;;;;;;;;22.30;39.80;;;;;;5046988;28;20413;-61
2022/09/03 02:27:16;;;;;;;;;;;22.30;39.70;;;;;;5030546;28;19960;-61
2022/09/03 02:29:43;;;;;;;;;;;22.30;39.70;;;;;;5053320;28;19972;-62
2022/09/03 02:32:09;;;;;;;;;;;22.30;39.70;;;;;;5047055;28;19933;-61
2022/09/03 02:34:36;;;;;;;;;;;22.30;39.70;;;;;;5031207;28;19921;-61
2022/09/03 02:37:13;;;;;;;;;;;22.30;39.70;;;;;;5047559;28;19943;-61
2022/09/03 02:39:40;;;;;;;;;;;22.30;39.70;;;;;;5045283;28;20350;-61
2022/09/03 02:42:07;;;;;;;;;;;22.30;39.70;;;;;;5026279;28;19928;-62
2022/09/03 02:44:34;;;;;;;;;;;22.30;39.70;;;;;;5024556;28;20008;-62
2022/09/03 02:47:01;;;;;;;;;;;22.30;39.70;;;;;;5047069;28;20247;-61
2022/09/03 02:49:28;;;;;;;;;;;22.30;39.70;;;;;;5046265;28;19950;-61
2022/09/03 02:51:57;;;;;;;;;;;22.30;39.80;;;;;;5029546;28;19928;-61
2022/09/03 02:54:25;;;;;;;;;;;22.30;39.70;;;;;;5041063;28;19921;-61
2022/09/03 02:56:52;;;;;;;;;;;22.30;39.70;;;;;;5045747;28;19951;-61
2022/09/03 02:59:21;;;;;;;;;;;22.30;39.70;;;;;;5046168;28;19931;-61
2022/09/03 03:01:48;;;;;;;;;;;22.30;39.70;;;;;;5030732;28;19924;-61
2022/09/03 03:04:15;;;;;;;;;;;22.30;39.70;;;;;;5022108;28;19925;-62
2022/09/03 03:06:42;;;;;;;;;;;22.30;39.70;;;;;;5015043;28;19928;-62
2022/09/03 03:09:08;;;;;;;;;;;22.30;39.70;;;;;;5028714;28;19928;-62
2022/09/03 03:11:37;;;;;;;;;;;22.30;39.70;;;;;;5026666;28;19967;-61
2022/09/03 03:14:04;;;;;;;;;;;22.30;39.70;;;;;;5044085;28;19921;-61
2022/09/03 03:16:30;;;;;;;;;;;22.30;39.70;;;;;;5048111;28;19954;-61
2022/09/03 03:18:57;;;;;;;;;;;22.20;39.60;;;;;;5027163;28;19948;-61
2022/09/03 03:21:24;;;;;;;;;;;22.30;39.70;;;;;;5025010;28;20019;-62
2022/09/03 03:23:51;;;;;;;;;;;22.20;39.60;;;;;;5027061;28;19978;-61
2022/09/03 03:26:18;;;;;;;;;;;22.20;39.60;;;;;;5028438;28;19928;-61
2022/09/03 03:28:47;;;;;;;;;;;22.30;39.70;;;;;;5030521;28;19929;-61
2022/09/03 03:31:14;;;;;;;;;;;22.30;39.60;;;;;;5051276;28;19921;-61
2022/09/03 03:33:43;;;;;;;;;;;22.20;39.60;;;;;;5022261;28;19921;-61
2022/09/03 03:36:10;;;;;;;;;;;22.20;39.60;;;;;;5046439;28;20015;-61
2022/09/03 03:38:37;;;;;;;;;;;22.20;39.60;;;;;;5025524;28;19929;-61
2022/09/03 03:41:07;;;;;;;;;;;22.30;39.60;;;;;;5039177;28;19979;-61
2022/09/03 03:43:33;;;;;;;;;;;22.20;39.60;;;;;;5026916;28;20315;-61
2022/09/03 03:46:01;;;;;;;;;;;22.20;39.60;;;;;;5046964;28;19921;-61
2022/09/03 03:48:30;;;;;;;;;;;22.20;39.60;;;;;;5027547;28;19924;-61
2022/09/03 03:51:00;;;;;;;;;;;22.20;39.60;;;;;;5043960;28;20306;-61
2022/09/03 03:53:26;;;;;;;;;;;22.20;39.60;;;;;;5024498;28;19982;-62
2022/09/03 03:55:56;;;;;;;;;;;22.20;39.60;;;;;;5028430;28;19921;-61
2022/09/03 03:58:23;;;;;;;;;;;22.20;39.60;;;;;;5046954;28;19925;-61
2022/09/03 04:00:50;;;;;;;;;;;22.20;39.60;;;;;;5042691;28;19928;-61
2022/09/03 04:03:18;;;;;;;;;;;22.20;39.60;;;;;;5046376;28;19921;-61
2022/09/03 04:05:54;;;;;;;;;;;22.20;39.60;;;;;;5026938;28;19933;-61
2022/09/03 04:08:21;;;;;;;;;;;22.20;39.60;;;;;;5024420;28;19979;-61
2022/09/03 04:10:48;;;;;;;;;;;22.20;39.60;;;;;;5025218;28;19921;-62
2022/09/03 04:13:15;;;;;;;;;;;22.20;39.60;;;;;;5028829;28;19921;-61
2022/09/03 04:15:42;;;;;;;;;;;22.20;39.60;;;;;;5029917;28;20286;-61
2022/09/03 04:18:08;;;;;;;;;;;22.20;39.60;;;;;;5043772;28;19928;-61
2022/09/03 04:20:37;;;;;;;;;;;22.20;39.60;;;;;;5045765;28;19967;-61
2022/09/03 04:23:03;;;;;;;;;;;22.20;39.60;;;;;;5029372;28;19975;-61
2022/09/03 04:25:30;;;;;;;;;;;22.20;39.60;;;;;;5045329;28;19925;-61
2022/09/03 04:27:57;;;;;;;;;;;22.20;39.60;;;;;;5029160;28;19921;-61
2022/09/03 04:30:24;;;;;;;;;;;22.20;39.60;;;;;;5027012;28;19928;-61
2022/09/03 04:32:53;;;;;;;;;;;22.20;39.60;;;;;;5027480;28;19920;-61
2022/09/03 04:35:20;;;;;;;;;;;22.20;39.60;;;;;;5029130;28;19939;-61
2022/09/03 04:37:48;;;;;;;;;;;22.20;39.60;;;;;;5025508;28;19925;-62
2022/09/03 04:40:14;;;;;;;;;;;22.20;39.60;;;;;;5046902;28;19928;-62
2022/09/03 04:42:41;;;;;;;;;;;22.20;39.60;;;;;;5028375;28;19940;-62
2022/09/03 04:45:09;;;;;;;;;;;22.20;39.60;;;;;;5043597;28;19960;-62
2022/09/03 04:47:36;;;;;;;;;;;22.20;39.60;;;;;;5027311;28;19975;-62
2022/09/03 04:50:02;;;;;;;;;;;22.20;39.50;;;;;;5043496;28;19932;-61
2022/09/03 04:52:30;;;;;;;;;;;22.20;39.60;;;;;;5026594;28;19937;-62
2022/09/03 04:54:58;;;;;;;;;;;22.10;39.50;;;;;;5044445;28;19928;-61
2022/09/03 04:57:25;;;;;;;;;;;22.20;39.50;;;;;;5045399;28;19921;-61
2022/09/03 04:59:52;;;;;;;;;;;22.10;39.40;;;;;;5025658;28;19936;-62
2022/09/03 05:02:20;;;;;;;;;;;22.20;39.50;;;;;;5025530;28;20278;-62
2022/09/03 05:04:47;;;;;;;;;;;22.10;39.40;;;;;;5024066;28;20015;-62
2022/09/03 05:07:14;;;;;;;;;;;22.20;39.60;;;;;;5043184;28;19940;-62
2022/09/03 05:09:40;;;;;;;;;;;22.10;39.40;;;;;;5028461;28;20003;-61
2022/09/03 05:12:09;;;;;;;;;;;22.10;39.40;;;;;;5022772;28;19921;-62
2022/09/03 05:14:36;;;;;;;;;;;22.10;39.40;;;;;;5027247;28;19933;-62
2022/09/03 05:17:03;;;;;;;;;;;22.10;39.40;;;;;;5027425;28;19921;-62
2022/09/03 05:19:30;;;;;;;;;;;22.10;39.40;;;;;;5028273;28;19960;-61
2022/09/03 05:21:57;;;;;;;;;;;22.10;39.30;;;;;;5025026;28;19927;-61
2022/09/03 05:24:24;;;;;;;;;;;22.10;39.40;;;;;;5023526;28;19968;-62
2022/09/03 05:26:51;;;;;;;;;;;22.10;39.40;;;;;;5024336;28;20019;-62
2022/09/03 05:29:20;;;;;;;;;;;22.10;39.40;;;;;;5041496;28;19921;-61
2022/09/03 05:31:47;;;;;;;;;;;22.10;39.40;;;;;;5040668;28;19928;-61
2022/09/03 05:34:14;;;;;;;;;;;22.10;39.40;;;;;;5040207;28;19921;-61
2022/09/03 05:36:41;;;;;;;;;;;22.10;39.40;;;;;;5028271;28;19925;-61
2022/09/03 05:39:08;;;;;;;;;;;22.10;39.40;;;;;;5023849;28;19921;-61
2022/09/03 05:41:34;;;;;;;;;;;22.10;39.40;;;;;;5007998;28;19927;-63
2022/09/03 05:44:02;;;;;;;;;;;22.10;39.40;;;;;;5045255;28;20293;-63
2022/09/03 05:46:31;;;;;;;;;;;22.10;39.40;;;;;;5026543;28;19967;-62
2022/09/03 05:48:58;;;;;;;;;;;22.10;39.50;;;;;;5024033;28;20019;-62
2022/09/03 05:51:25;;;;;;;;;;;22.10;39.50;;;;;;5029331;28;19921;-62
2022/09/03 05:53:54;;;;;;;;;;;22.10;39.40;;;;;;5026816;28;19929;-62
2022/09/03 05:56:21;;;;;;;;;;;22.10;39.40;;;;;;5026653;28;19921;-62
2022/09/03 05:58:48;;;;;;;;;;;22.10;39.50;;;;;;5041217;28;19928;-62
2022/09/03 06:01:15;;;;;;;;;;;22.10;39.40;;;;;;5042058;28;19937;-62
2022/09/03 06:03:44;;;;;;;;;;;22.10;39.40;;;;;;5029524;28;20444;-62
2022/09/03 06:06:12;;;;;;;;;;;22.00;39.30;;;;;;5024554;28;19925;-62
2022/09/03 06:08:39;;;;;;;;;;;22.00;39.30;;;;;;5020939;28;19931;-62
2022/09/03 06:11:06;;;;;;;;;;;22.00;39.30;;;;;;5043320;28;19920;-62
2022/09/03 06:13:33;;;;;;;;;;;22.00;39.30;;;;;;5025076;28;19955;-62
2022/09/03 06:16:00;;;;;;;;;;;22.10;39.40;;;;;;5046378;28;19924;-62
2022/09/03 06:18:27;;;;;;;;;;;22.00;39.30;;;;;;5044384;28;19925;-63
2022/09/03 06:20:56;;;;;;;;;;;22.00;39.30;;;;;;5044425;28;19952;-62
2022/09/03 06:23:23;;;;;;;;;;;22.00;39.30;;;;;;5025418;28;19925;-63
2022/09/03 06:25:59;;;;;;;;;;;22.00;39.30;;;;;;5045770;28;19960;-62
2022/09/03 06:28:26;;;;;;;;;;;22.00;39.40;;;;;;5042080;28;19925;-62
2022/09/03 06:30:53;;;;;;;;;;;22.00;39.30;;;;;;5044023;28;19931;-62
2022/09/03 06:33:19;;;;;;;;;;;22.00;39.30;;;;;;5041191;28;19986;-62
2022/09/03 06:35:46;;;;;;;;;;;22.00;39.30;;;;;;5046473;28;19967;-62
2022/09/03 06:38:15;;;;;;;;;;;22.00;39.40;;;;;;5024939;28;19928;-63
2022/09/03 06:40:41;;;;;;;;;;;22.00;39.40;;;;;;5038815;28;19927;-62
2022/09/03 06:43:10;;;;;;;;;;;22.00;39.40;;;;;;5027352;28;19927;-62
2022/09/03 06:45:37;;;;;;;;;;;22.00;39.40;;;;;;5047307;28;20377;-63
2022/09/03 06:48:04;;;;;;;;;;;22.00;39.40;;;;;;5026417;28;19940;-62
2022/09/03 06:50:30;;;;;;;;;;;22.00;39.40;;;;;;5044692;28;19925;-62
2022/09/03 06:52:57;;;;;;;;;;;22.00;39.40;;;;;;5041000;28;20342;-62
2022/09/03 06:55:25;;;;;;;;;;;22.00;39.40;;;;;;5044178;28;19932;-62
2022/09/03 06:57:55;;;;;;;;;;;22.00;39.40;;;;;;5028736;28;19959;-62
2022/09/03 07:00:22;;;;;;;;;;;22.00;39.40;;;;;;5021941;28;20038;-63
2022/09/03 07:02:50;;;;;;;;;;;22.00;39.40;;;;;;5024819;28;19963;-62
2022/09/03 07:05:17;;;;;;;;;;;22.00;39.50;;;;;;5021402;28;19920;-62
2022/09/03 07:07:45;;;;;;;;;;;22.00;39.50;;;;;;5020691;28;19932;-62
2022/09/03 07:10:14;;;;;;;;;;;22.00;39.60;;;;;;5016161;28;19928;-62
2022/09/03 07:12:43;;;;;;;;;;;22.00;39.60;;;;;;5029808;28;19932;-62
2022/09/03 07:15:10;;;;;;;;;;;22.00;39.60;;;;;;5059383;28;19925;-62
2022/09/03 07:17:37;;;;;;;;;;;22.00;39.70;;;;;;5041945;28;19928;-64
2022/09/03 07:20:06;;;;;;;;;;;22.00;39.60;;;;;;5032674;28;20003;-62
2022/09/03 07:22:33;;;;;;;;;;;22.00;39.70;;;;;;5043361;28;20026;-62
2022/09/03 07:25:01;;;;;;;;;;;22.00;39.70;;;;;;5046828;28;19929;-62
2022/09/03 07:27:29;;;;;;;;;;;22.00;39.70;;;;;;5039814;28;19933;-61
2022/09/03 07:29:57;;;;;;;;;;;22.10;39.80;;;;;;5030344;28;19927;-61
2022/09/03 07:32:24;;;;;;;;;;;22.00;39.70;;;;;;5033035;28;19921;-61
2022/09/03 07:34:51;;;;;;;;;;;22.00;39.80;;;;;;5044252;28;20024;-61
2022/09/03 07:37:24;;;;;;;;;;;22.00;39.80;;;;;;5046331;28;19956;-61
2022/09/03 07:39:53;;;;;;;;;;;22.00;39.80;;;;;;5043495;28;20027;-61
2022/09/03 07:42:20;;;;;;;;;;;22.10;39.90;;;;;;5045913;28;19924;-62
2022/09/03 07:44:47;;;;;;;;;;;22.10;39.90;;;;;;5042148;28;19922;-61
2022/09/03 07:47:17;;;;;;;;;;;22.00;39.80;;;;;;5023841;28;19974;-62
2022/09/03 07:49:43;;;;;;;;;;;22.10;39.90;;;;;;5028808;28;19920;-61
2022/09/03 07:52:10;;;;;;;;;;;22.00;39.80;;;;;;5043572;28;19921;-61
2022/09/03 07:54:37;;;;;;;;;;;22.00;39.80;;;;;;5023664;28;19944;-62
2022/09/03 07:57:04;;;;;;;;;;;22.10;40.00;;;;;;5022520;28;19928;-61
2022/09/03 07:59:31;;;;;;;;;;;22.00;39.90;;;;;;5043046;28;20028;-61
2022/09/03 08:01:58;;;;;;;;;;;22.00;39.90;;;;;;5044133;28;20355;-64
2022/09/03 08:04:26;;;;;;;;;;;22.10;40.00;;;;;;5030260;28;19928;-63
2022/09/03 08:06:54;;;;;;;;;;;22.00;40.00;;;;;;5044169;28;19921;-61
2022/09/03 08:09:21;;;;;;;;;;;22.10;40.10;;;;;;5032340;28;19921;-61
2022/09/03 08:11:48;;;;;;;;;;;22.10;40.10;;;;;;5050693;28;19925;-62
2022/09/03 08:14:15;;;;;;;;;;;22.10;40.10;;;;;;5026996;28;19921;-61
2022/09/03 08:16:42;;;;;;;;;;;22.10;40.10;;;;;;5046556;28;19955;-60
2022/09/03 08:19:10;;;;;;;;;;;22.10;40.20;;;;;;5047439;28;19921;-61
2022/09/03 08:21:40;;;;;;;;;;;22.10;40.20;;;;;;5042113;28;19940;-61
2022/09/03 08:24:09;;;;;;;;;;;22.10;40.10;;;;;;5025898;28;20000;-62
2022/09/03 08:26:36;;;;;;;;;;;22.10;40.10;;;;;;5027669;28;19932;-61
2022/09/03 08:29:03;;;;;;;;;;;22.10;40.10;;;;;;5047579;28;19936;-62
2022/09/03 08:31:31;;;;;;;;;;;22.10;40.10;;;;;;5044412;28;19971;-62
2022/09/03 08:33:58;;;;;;;;;;;22.10;40.10;;;;;;5027252;28;19982;-61
2022/09/03 08:36:25;;;;;;;;;;;22.10;40.10;;;;;;5028044;28;19921;-61
2022/09/03 08:38:54;;;;;;;;;;;22.10;40.10;;;;;;5024440;28;19926;-61
2022/09/03 08:41:23;;;;;;;;;;;22.10;40.10;;;;;;5029367;28;19967;-61
2022/09/03 08:44:08;;;;;;;;;;;22.10;40.10;;;;;;5045010;28;19927;-61
2022/09/03 08:46:37;;;;;;;;;;;22.10;40.10;;;;;;5041814;28;19940;-61
2022/09/03 08:49:04;;;;;;;;;;;22.10;40.10;;;;;;5047168;28;19933;-61
2022/09/03 08:51:32;;;;;;;;;;;22.10;40.20;;;;;;5042501;28;19929;-61
2022/09/03 08:54:03;;;;;;;;;;;22.10;40.10;;;;;;5043800;28;19921;-61
2022/09/03 08:56:31;;;;;;;;;;;22.20;40.20;;;;;;5041312;28;19924;-61
2022/09/03 08:58:58;;;;;;;;;;;22.10;40.20;;;;;;5045410;28;19927;-62
2022/09/03 09:01:30;;;;;;;;;;;22.10;40.20;;;;;;5040669;28;19978;-62
2022/09/03 09:03:58;;;;;;;;;;;22.10;40.20;;;;;;5027301;28;19924;-62
2022/09/03 09:06:26;;;;;;;;;;;22.10;40.20;;;;;;5016943;28;19921;-61
2022/09/03 09:09:00;;;;;;;;;;;22.10;40.20;;;;;;5040795;28;19921;-61
2022/09/03 09:11:31;;;;;;;;;;;22.10;40.20;;;;;;5022267;28;19925;-59
2022/09/03 09:13:59;;;;;;;;;;;22.10;40.20;;;;;;5026549;28;19932;-59
2022/09/03 09:16:29;;;;;;;;;;;22.10;40.20;;;;;;5027271;28;20675;-59
2022/09/03 09:18:58;;;;;;;;;;;22.10;40.20;;;;;;5023529;28;19929;-61
2022/09/03 09:21:27;;;;;;;;;;;22.10;40.20;;;;;;5015029;28;20056;-61
2022/09/03 09:23:54;;;;;;;;;;;22.10;40.20;;;;;;5041846;28;19944;-62
2022/09/03 09:26:21;;;;;;;;;;;22.10;40.20;;;;;;5015095;28;19956;-60
2022/09/03 09:28:50;;;;;;;;;;;22.10;40.20;;;;;;5018323;28;19928;-62
2022/09/03 09:31:17;;;;;;;;;;;22.10;40.20;;;;;;5044928;28;20014;-60
2022/09/03 09:33:44;;;;;;;;;;;22.10;40.20;;;;;;5022718;28;19924;-60
2022/09/03 09:36:14;;;;;;;;;;;22.10;40.20;;;;;;5039921;28;19921;-59
2022/09/03 09:38:40;;;;;;;;;;;22.10;40.20;;;;;;5043494;28;20320;-62
2022/09/03 09:41:11;;;;;;;;;;;22.10;40.20;;;;;;5027145;28;20370;-63
2022/09/03 09:43:38;;;;;;;;;;;22.10;40.20;;;;;;5041447;28;19925;-59
2022/09/03 09:46:12;;;;;;;;;;;22.10;40.20;;;;;;5044283;28;19944;-61
2022/09/03 09:48:41;;;;;;;;;;;22.10;40.20;;;;;;5043857;28;19966;-59
2022/09/03 09:51:09;;;;;;;;;;;22.10;40.20;;;;;;5044279;28;19922;-62
2022/09/03 09:53:36;;;;;;;;;;;22.20;40.20;;;;;;5029405;28;19972;-61
2022/09/03 09:56:03;;;;;;;;;;;22.10;40.20;;;;;;5045956;28;19967;-61
2022/09/03 09:58:30;;;;;;;;;;;22.10;40.20;;;;;;5020748;28;20328;-61
2022/09/03 10:00:58;;;;;;;;;;;22.10;40.20;;;;;;5026873;28;19928;-61
2022/09/03 10:03:26;;;;;;;;;;;22.10;40.20;;;;;;5021107;28;19927;-61
2022/09/03 10:06:52;;;;;;;;;;;22.10;40.20;;;;;;5045233;28;19978;-61
2022/09/03 10:08:48;;;;;;;;;;;22.20;40.30;;;;;;5019562;28;19932;-61
2022/09/03 10:11:15;;;;;;;;;;;22.20;40.30;;;;;;5037515;28;19933;-62
2022/09/03 10:13:42;;;;;;;;;;;22.20;40.20;;;;;;5029058;28;19925;-61
2022/09/03 10:16:12;;;;;;;;;;;22.20;40.30;;;;;;5044977;28;20409;-62
2022/09/03 10:18:41;;;;;;;;;;;22.20;40.30;;;;;;5026720;28;20006;-62
2022/09/03 10:21:09;;;;;;;;;;;22.20;40.20;;;;;;5037806;28;19921;-61
2022/09/03 10:23:40;;;;;;;;;;;22.20;40.20;;;;;;5045375;28;19928;-62
2022/09/03 10:26:08;;;;;;;;;;;22.20;40.20;;;;;;5019098;28;19936;-61
2022/09/03 10:28:40;;;;;;;;;;;22.20;40.20;;;;;;5022673;28;19921;-61
2022/09/03 10:31:22;;;;;;;;;;;22.20;40.20;;;;;;5027154;28;20313;-61
2022/09/03 10:33:51;;;;;;;;;;;22.20;40.20;;;;;;5021773;28;20480;-62
2022/09/03 10:36:19;;;;;;;;;;;22.20;40.10;;;;;;5030410;28;19929;-61
2022/09/03 10:38:46;;;;;;;;;;;22.20;40.20;;;;;;5014135;28;19921;-61
2022/09/03 10:41:16;;;;;;;;;;;22.20;40.20;;;;;;5023898;28;20450;-61
2022/09/03 10:43:46;;;;;;;;;;;22.20;40.10;;;;;;5023046;28;19952;-61
2022/09/03 10:46:15;;;;;;;;;;;22.20;40.10;;;;;;5051299;28;20012;-61
2022/09/03 10:48:53;;;;;;;;;;;22.20;40.10;;;;;;5024590;28;19933;-61
2022/09/03 10:51:20;;;;;;;;;;;22.20;40.00;;;;;;5025599;28;19979;-61
2022/09/03 10:53:50;;;;;;;;;;;22.20;40.00;;;;;;5048942;28;19925;-62
2022/09/03 10:56:17;;;;;;;;;;;22.20;40.00;;;;;;5027975;28;19928;-61
2022/09/03 10:58:48;;;;;;;;;;;22.20;40.00;;;;;;5043876;28;19925;-61
2022/09/03 11:01:21;;;;;;;;;;;22.20;40.00;;;;;;5042368;28;19925;-61
2022/09/03 11:03:48;;;;;;;;;;;22.20;39.90;;;;;;5017567;28;20302;-61
2022/09/03 11:06:18;;;;;;;;;;;22.20;39.90;;;;;;5047258;28;19924;-61
2022/09/03 11:08:45;;;;;;;;;;;22.20;39.80;;;;;;5036185;28;19983;-62
2022/09/03 11:11:13;;;;;;;;;;;22.20;39.80;;;;;;5048030;28;20029;-61
2022/09/03 11:13:41;;;;;;;;;;;22.20;39.70;;;;;;5034988;28;19932;-61
2022/09/03 11:16:11;;;;;;;;;;;22.20;39.70;;;;;;5039754;28;19995;-62
2022/09/03 11:18:40;;;;;;;;;;;22.30;39.70;;;;;;5047552;28;20354;-62
2022/09/03 11:21:09;;;;;;;;;;;22.20;39.60;;;;;;5031019;28;20007;-61
2022/09/03 11:23:40;;;;;;;;;;;22.30;39.60;;;;;;5028053;28;20015;-62
2022/09/03 11:26:07;;;;;;;;;;;22.20;39.50;;;;;;5023655;28;19921;-61
2022/09/03 11:28:39;;;;;;;;;;;22.20;39.50;;;;;;5043634;28;19928;-61
2022/09/03 11:31:20;;;;;;;;;;;22.20;39.40;;;;;;5018758;28;19928;-61
2022/09/03 11:33:48;;;;;;;;;;;22.20;39.30;;;;;;5037202;28;19933;-61
2022/09/03 11:36:18;;;;;;;;;;;22.20;39.20;;;;;;5020140;28;19932;-61
2022/09/03 11:38:46;;;;;;;;;;;22.20;39.20;;;;;;5045803;28;19920;-61
2022/09/03 11:41:14;;;;;;;;;;;22.20;39.10;;;;;;5028925;28;19964;-61
2022/09/03 11:43:41;;;;;;;;;;;22.20;39.00;;;;;;5033546;28;19921;-61
2022/09/03 11:46:11;;;;;;;;;;;22.20;39.00;;;;;;5025781;28;20370;-61
2022/09/03 11:48:39;;;;;;;;;;;22.20;39.00;;;;;;5031716;28;19924;-62
2022/09/03 11:51:16;;;;;;;;;;;22.20;39.00;;;;;;5044570;28;19925;-61
2022/09/03 11:53:52;;;;;;;;;;;22.20;39.00;;;;;;5031281;28;19921;-61
2022/09/03 11:56:21;;;;;;;;;;;22.20;39.00;;;;;;5045732;28;19975;-61
2022/09/03 11:58:57;;;;;;;;;;;22.20;38.90;;;;;;5026111;28;19963;-61
2022/09/03 12:01:27;;;;;;;;;;;22.20;39.00;;;;;;5031903;28;19925;-61
2022/09/03 12:03:54;;;;;;;;;;;22.20;39.00;;;;;;5030896;28;19921;-60
2022/09/03 12:06:38;;;;;;;;;;;22.20;38.90;;;;;;5041110;28;19967;-61
2022/09/03 12:09:13;;;;;;;;;;;22.30;39.00;;;;;;5046421;28;20394;-62
2022/09/03 12:11:44;;;;;;;;;;;22.30;39.00;;;;;;5024203;28;19925;-61
2022/09/03 12:14:13;;;;;;;;;;;22.20;38.90;;;;;;5017720;28;19925;-61
2022/09/03 12:16:57;;;;;;;;;;;22.30;39.00;;;;;;5022058;28;20004;-61
2022/09/03 12:19:27;;;;;;;;;;;22.30;39.00;;;;;;5026308;28;19983;-61
2022/09/03 12:21:55;;;;;;;;;;;22.30;39.00;;;;;;5046760;28;19972;-61
2022/09/03 12:24:22;;;;;;;;;;;22.30;39.00;;;;;;5047880;28;19931;-61
2022/09/03 12:26:50;;;;;;;;;;;22.30;39.00;;;;;;5042060;28;20020;-61
2022/09/03 12:29:23;;;;;;;;;;;22.30;38.90;;;;;;5045960;28;19920;-60
2022/09/03 12:31:50;;;;;;;;;;;22.30;38.90;;;;;;5048342;28;19925;-61
2022/09/03 12:34:17;;;;;;;;;;;22.30;38.80;;;;;;5031165;28;19956;-60
2022/09/03 12:36:44;;;;;;;;;;;22.30;38.80;;;;;;5014198;28;20003;-62
2022/09/03 12:39:11;;;;;;;;;;;22.30;38.80;;;;;;5024242;28;19921;-61
2022/09/03 12:41:51;;;;;;;;;;;22.30;38.60;;;;;;5025519;28;20275;-61
2022/09/03 12:44:27;;;;;;;;;;;22.30;38.50;;;;;;5050138;28;19924;-61
2022/09/03 12:47:00;;;;;;;;;;;22.30;38.40;;;;;;5031326;28;19921;-61
2022/09/03 12:49:26;;;;;;;;;;;22.30;38.30;;;;;;5019343;28;19921;-61
2022/09/03 12:51:57;;;;;;;;;;;22.30;38.40;;;;;;5047666;28;19921;-62
2022/09/03 12:54:24;;;;;;;;;;;22.30;38.30;;;;;;5027373;28;19948;-61
2022/09/03 12:56:53;;;;;;;;;;;22.30;38.20;;;;;;5049684;28;19920;-62
2022/09/03 12:59:22;;;;;;;;;;;22.30;38.20;;;;;;5038919;28;19921;-61
2022/09/03 13:01:50;;;;;;;;;;;22.30;38.20;;;;;;5059162;28;19956;-62
2022/09/03 13:04:18;;;;;;;;;;;22.30;38.10;;;;;;5047532;28;19928;-61
2022/09/03 13:06:48;;;;;;;;;;;22.30;38.10;;;;;;5048268;28;20252;-61
2022/09/03 13:09:15;;;;;;;;;;;22.30;38.20;;;;;;5034570;28;20349;-61
2022/09/03 13:11:43;;;;;;;;;;;22.30;38.20;;;;;;5030184;28;20027;-62
2022/09/03 13:14:10;;;;;;;;;;;22.30;38.10;;;;;;5049202;28;19927;-62
2022/09/03 13:16:44;;;;;;;;;;;22.30;38.10;;;;;;5041604;28;19932;-61
2022/09/03 13:19:14;;;;;;;;;;;22.30;38.20;;;;;;5040260;28;19935;-61
2022/09/03 13:21:42;;;;;;;;;;;22.30;38.20;;;;;;5022499;28;19925;-61
2022/09/03 13:24:14;;;;;;;;;;;22.30;38.20;;;;;;5049714;28;19967;-61
2022/09/03 13:26:43;;;;;;;;;;;22.30;38.10;;;;;;5039731;28;20363;-61
2022/09/03 13:29:24;;;;;;;;;;;22.30;38.10;;;;;;5048238;28;19921;-61
2022/09/03 13:31:53;;;;;;;;;;;22.30;38.10;;;;;;5015273;28;19925;-61
2022/09/03 13:34:23;;;;;;;;;;;22.30;38.10;;;;;;5037623;28;20352;-61
2022/09/03 13:36:50;;;;;;;;;;;22.30;38.10;;;;;;5046526;28;19929;-61
2022/09/03 13:39:20;;;;;;;;;;;22.30;38.00;;;;;;5027377;28;20027;-62
2022/09/03 13:41:48;;;;;;;;;;;22.30;38.00;;;;;;5042915;28;20014;-61
2022/09/03 13:44:16;;;;;;;;;;;22.30;38.00;;;;;;5019498;28;19927;-61
2022/09/03 13:46:44;;;;;;;;;;;22.30;38.00;;;;;;5016108;28;19995;-61
2022/09/03 13:52:02;;;;;;;;;;;22.30;38.00;;;;;;5021831;28;19935;-61
2022/09/03 13:54:30;;;;;;;;;;;22.30;38.00;;;;;;5014144;28;20274;-62
2022/09/03 13:56:58;;;;;;;;;;;22.30;37.80;;;;;;5040090;28;19975;-61
2022/09/03 13:59:27;;;;;;;;;;;22.30;37.80;;;;;;5027846;28;19943;-62
2022/09/03 14:02:25;;;;;;;;;;;22.30;37.70;;;;;;5028924;28;19993;-62
2022/09/03 14:04:55;;;;;;;;;;;22.30;37.70;;;;;;4981714;28;19953;-61
2022/09/03 14:07:24;;;;;;;;;;;22.30;37.70;;;;;;5007893;28;20313;-61
2022/09/03 14:09:54;;;;;;;;;;;22.30;37.60;;;;;;5047635;28;19971;-61
2022/09/03 14:12:23;;;;;;;;;;;22.30;37.60;;;;;;5045670;28;19928;-61
2022/09/03 14:14:52;;;;;;;;;;;22.30;37.60;;;;;;5022890;28;19920;-61
2022/09/03 14:17:20;;;;;;;;;;;22.30;37.60;;;;;;5044009;28;20015;-62
2022/09/03 14:19:48;;;;;;;;;;;22.30;37.70;;;;;;5033757;28;20189;-62
2022/09/03 14:22:15;;;;;;;;;;;22.30;37.60;;;;;;5025587;28;19927;-59
2022/09/03 14:24:45;;;;;;;;;;;22.30;37.70;;;;;;5026659;28;20079;-60
2022/09/03 14:27:12;;;;;;;;;;;22.30;38.30;;;;;;5032441;28;19971;-62
2022/09/03 14:29:39;;;;;;;;;;;22.30;37.90;;;;;;5028710;28;19925;-61